Wunstorf, Germany

7:34 AM CET on January 23, 2017 (GMT +0100)
Wunstorf Air Base | | Change Station

Elev 230 ft 52.45 °N, 9.43 °E | Updated 14 minutes ago

Light Freezing Fog
Freezing Fog
27 °F
Feels Like 21 °F
N
5
Wind Variable Wind from NW

Today
High -- | Low -- °F
--% Chance of Precip.
Yesterday
High -- | Low -- °F
Precip. -- in
Pressure 30.30 in
Visibility 0.6 miles
Clouds Overcast 200 ft
Windchill 21 °F
Dew Point 25 °F
Humidity 93%
Rainfall 0.00 in
Snow Depth Not available.
8:16 AM 4:52 PM
Waning Crescent, 20% visible
METAR ETNW 230620Z 31004KT 0900 R08/3900N FZFG OVC002 M03/M04 Q1026 AMB AMB TEMPO RED
Pressure 30.30 in
Visibility 0.6 miles
Clouds Overcast 200 ft
Windchill 21 °F
Dew Point 25 °F
Humidity 93%
Rainfall 0.00 in
Snow Depth Not available.
8:16 AM 4:52 PM
Waning Crescent, 20% visible
METAR ETNW 230620Z 31004KT 0900 R08/3900N FZFG OVC002 M03/M04 Q1026 AMB AMB TEMPO RED

Get Your Daily Forecast Email!

Thanks for signing up!

Be on the lookout for a verification email in your inbox.

You'll start receiving the daily forecast at 8 AM.

×

10-Day Weather Forecast

×

Almanac

Astronomy

Jan. 23, 2017 Rise Set
Actual Time
Civil Twilight
Nautical Twilight
Astronomical Twilight
Moon
Length of Visible Light
Length of Day
Tomorrow will be .
, % of the Moon is Illuminated

Today's Extremes

Country Highs Country Lows

Community

WunderPhotos

Upload Photos

1,962,540 photos uploaded!

WunderBlog® & News

Nearby

Air Quality

  Air Quality AQ Index Pollutant
Not available.

Snow Depth

Station Depth Elevation

Earthquake Activity

City Distance Mag. Time & Date
Minimum magnitude displayed is 2.5.

Coastal Water Temperatures

Place Temperature

Stations

Nearby Weather Stations

Station Location Temp. Windchill Dew Point Humidity Wind Precip. Elev Updated Type